Clifton, Texas
Current Conditions -  °F | °C
As of 5:51 AM on Saturday 22 Nov 2014 (Local Time) from KACT Reporting Station
Overcast Overcast  
Wind Chill: 63°   Ceiling: 1000
Heat Index: 63°   Visibility: 8mi
Dew Point: 61°   Wind: 16mph
Humidity: 93%   Direction: 150°SSE
Pressure: 30.03"   Gusts: NA
Location:  31.78°N, 97.58°W
Report Text: KACT 221151Z 15014KT 8SM BKN010 OVC018 17/16 A3003 RMK AO2 CIG 007V015 SLP165 60000 70002 T01720161 10189 20172 56007
Loading
Personal Weather Stations






























Interactive Weather Map New forecast layout! Learn more

10-Day Weather Forecast

Advertisements
Track Severe Weather on mobile